sensor_id;sensor_type;location;lat;lon;timestamp;P1;durP1;ratioP1;P2;durP2;ratioP2
22675;SDS011;12521;43.310;21.876;2023-04-30T00:01:39;42.0;;;31.0;;
22675;SDS011;12521;43.310;21.876;2023-04-30T00:06:16;42.0;;;31.0;;
22675;SDS011;12521;43.310;21.876;2023-04-30T00:10:53;40.0;;;32.0;;
22675;SDS011;12521;43.310;21.876;2023-04-30T00:15:30;40.0;;;32.0;;
22675;SDS011;12521;43.310;21.876;2023-04-30T00:20:07;40.0;;;32.0;;
22675;SDS011;12521;43.310;21.876;2023-04-30T00:24:47;38.0;;;34.0;;
22675;SDS011;12521;43.310;21.876;2023-04-30T00:29:24;38.0;;;34.0;;
22675;SDS011;12521;43.310;21.876;2023-04-30T00:34:01;38.0;;;34.0;;
22675;SDS011;12521;43.310;21.876;2023-04-30T00:38:37;38.0;;;34.0;;
22675;SDS011;12521;43.310;21.876;2023-04-30T00:43:14;39.0;;;34.0;;
22675;SDS011;12521;43.310;21.876;2023-04-30T00:47:50;39.0;;;34.0;;
22675;SDS011;12521;43.310;21.876;2023-04-30T00:52:28;35.0;;;29.0;;
22675;SDS011;12521;43.310;21.876;2023-04-30T00:57:11;35.0;;;29.0;;
22675;SDS011;12521;43.310;21.876;2023-04-30T01:01:51;31.0;;;24.0;;
22675;SDS011;12521;43.310;21.876;2023-04-30T01:06:30;31.0;;;24.0;;
22675;SDS011;12521;43.310;21.876;2023-04-30T01:11:21;28.0;;;22.0;;
22675;SDS011;12521;43.310;21.876;2023-04-30T01:17:07;28.0;;;22.0;;
22675;SDS011;12521;43.310;21.876;2023-04-30T01:22:34;25.0;;;20.0;;
22675;SDS011;12521;43.310;21.876;2023-04-30T01:28:01;25.0;;;20.0;;
22675;SDS011;12521;43.310;21.876;2023-04-30T01:32:49;22.0;;;19.0;;
22675;SDS011;12521;43.310;21.876;2023-04-30T01:37:36;22.0;;;19.0;;
22675;SDS011;12521;43.310;21.876;2023-04-30T01:43:04;20.0;;;18.0;;
22675;SDS011;12521;43.310;21.876;2023-04-30T01:48:23;20.0;;;18.0;;
22675;SDS011;12521;43.310;21.876;2023-04-30T01:53:40;21.0;;;18.0;;
22675;SDS011;12521;43.310;21.876;2023-04-30T01:58:23;21.0;;;18.0;;
22675;SDS011;12521;43.310;21.876;2023-04-30T02:03:03;22.0;;;19.0;;
22675;SDS011;12521;43.310;21.876;2023-04-30T02:07:42;22.0;;;19.0;;
22675;SDS011;12521;43.310;21.876;2023-04-30T02:12:25;22.0;;;20.0;;
22675;SDS011;12521;43.310;21.876;2023-04-30T02:17:02;22.0;;;20.0;;
22675;SDS011;12521;43.310;21.876;2023-04-30T02:21:38;21.0;;;20.0;;
22675;SDS011;12521;43.310;21.876;2023-04-30T02:26:15;21.0;;;20.0;;
22675;SDS011;12521;43.310;21.876;2023-04-30T02:30:51;22.0;;;20.0;;
22675;SDS011;12521;43.310;21.876;2023-04-30T02:35:28;22.0;;;20.0;;
22675;SDS011;12521;43.310;21.876;2023-04-30T02:40:07;22.0;;;20.0;;
22675;SDS011;12521;43.310;21.876;2023-04-30T02:44:46;23.0;;;19.0;;
22675;SDS011;12521;43.310;21.876;2023-04-30T02:49:23;23.0;;;19.0;;
22675;SDS011;12521;43.310;21.876;2023-04-30T02:54:00;26.0;;;22.0;;
22675;SDS011;12521;43.310;21.876;2023-04-30T02:58:37;26.0;;;22.0;;
22675;SDS011;12521;43.310;21.876;2023-04-30T03:03:14;28.0;;;24.0;;
22675;SDS011;12521;43.310;21.876;2023-04-30T03:07:50;28.0;;;24.0;;
22675;SDS011;12521;43.310;21.876;2023-04-30T03:12:27;28.0;;;24.0;;
22675;SDS011;12521;43.310;21.876;2023-04-30T03:17:04;28.0;;;24.0;;
22675;SDS011;12521;43.310;21.876;2023-04-30T03:21:40;29.0;;;25.0;;
22675;SDS011;12521;43.310;21.876;2023-04-30T03:26:17;29.0;;;25.0;;
22675;SDS011;12521;43.310;21.876;2023-04-30T03:30:55;28.0;;;24.0;;
22675;SDS011;12521;43.310;21.876;2023-04-30T03:35:32;28.0;;;24.0;;
22675;SDS011;12521;43.310;21.876;2023-04-30T03:40:11;28.0;;;24.0;;
22675;SDS011;12521;43.310;21.876;2023-04-30T03:44:49;27.0;;;23.0;;
22675;SDS011;12521;43.310;21.876;2023-04-30T03:49:25;27.0;;;23.0;;
22675;SDS011;12521;43.310;21.876;2023-04-30T03:54:02;28.0;;;24.0;;
22675;SDS011;12521;43.310;21.876;2023-04-30T03:58:39;28.0;;;24.0;;
22675;SDS011;12521;43.310;21.876;2023-04-30T04:03:17;29.0;;;24.0;;
22675;SDS011;12521;43.310;21.876;2023-04-30T04:07:54;29.0;;;24.0;;
22675;SDS011;12521;43.310;21.876;2023-04-30T04:12:31;27.0;;;24.0;;
22675;SDS011;12521;43.310;21.876;2023-04-30T04:17:07;27.0;;;24.0;;
22675;SDS011;12521;43.310;21.876;2023-04-30T04:21:44;25.0;;;23.0;;
22675;SDS011;12521;43.310;21.876;2023-04-30T04:26:21;25.0;;;23.0;;
22675;SDS011;12521;43.310;21.876;2023-04-30T04:30:57;26.0;;;24.0;;
22675;SDS011;12521;43.310;21.876;2023-04-30T04:35:34;26.0;;;24.0;;
22675;SDS011;12521;43.310;21.876;2023-04-30T04:40:10;26.0;;;24.0;;
22675;SDS011;12521;43.310;21.876;2023-04-30T04:44:47;26.0;;;24.0;;
22675;SDS011;12521;43.310;21.876;2023-04-30T04:49:23;26.0;;;24.0;;
22675;SDS011;12521;43.310;21.876;2023-04-30T04:54:00;98.0;;;70.0;;
22675;SDS011;12521;43.310;21.876;2023-04-30T04:58:36;98.0;;;70.0;;
22675;SDS011;12521;43.310;21.876;2023-04-30T05:03:13;171.0;;;117.0;;
22675;SDS011;12521;43.310;21.876;2023-04-30T05:07:50;171.0;;;117.0;;
22675;SDS011;12521;43.310;21.876;2023-04-30T05:12:26;102.0;;;74.0;;
22675;SDS011;12521;43.310;21.876;2023-04-30T05:17:03;102.0;;;74.0;;
22675;SDS011;12521;43.310;21.876;2023-04-30T05:21:40;34.0;;;32.0;;
22675;SDS011;12521;43.310;21.876;2023-04-30T05:26:17;34.0;;;32.0;;
22675;SDS011;12521;43.310;21.876;2023-04-30T05:30:54;34.0;;;31.0;;
22675;SDS011;12521;43.310;21.876;2023-04-30T05:35:31;34.0;;;31.0;;
22675;SDS011;12521;43.310;21.876;2023-04-30T05:40:09;34.0;;;31.0;;
22675;SDS011;12521;43.310;21.876;2023-04-30T05:44:49;34.0;;;30.0;;
22675;SDS011;12521;43.310;21.876;2023-04-30T05:49:26;34.0;;;30.0;;
22675;SDS011;12521;43.310;21.876;2023-04-30T05:54:04;34.0;;;30.0;;
22675;SDS011;12521;43.310;21.876;2023-04-30T05:58:40;34.0;;;30.0;;
22675;SDS011;12521;43.310;21.876;2023-04-30T06:03:17;35.0;;;29.0;;
22675;SDS011;12521;43.310;21.876;2023-04-30T06:07:54;35.0;;;29.0;;
22675;SDS011;12521;43.310;21.876;2023-04-30T06:12:32;37.0;;;30.0;;
22675;SDS011;12521;43.310;21.876;2023-04-30T06:17:09;37.0;;;30.0;;
22675;SDS011;12521;43.310;21.876;2023-04-30T06:21:46;39.0;;;30.0;;
22675;SDS011;12521;43.310;21.876;2023-04-30T06:26:23;39.0;;;30.0;;
22675;SDS011;12521;43.310;21.876;2023-04-30T06:31:01;35.0;;;30.0;;
22675;SDS011;12521;43.310;21.876;2023-04-30T06:35:39;35.0;;;30.0;;
22675;SDS011;12521;43.310;21.876;2023-04-30T06:40:16;35.0;;;30.0;;
22675;SDS011;12521;43.310;21.876;2023-04-30T06:44:53;31.0;;;30.0;;
22675;SDS011;12521;43.310;21.876;2023-04-30T06:49:29;31.0;;;30.0;;
22675;SDS011;12521;43.310;21.876;2023-04-30T06:54:06;31.0;;;29.0;;
22675;SDS011;12521;43.310;21.876;2023-04-30T06:58:43;31.0;;;29.0;;
22675;SDS011;12521;43.310;21.876;2023-04-30T07:03:20;31.0;;;28.0;;
22675;SDS011;12521;43.310;21.876;2023-04-30T07:07:56;31.0;;;28.0;;
22675;SDS011;12521;43.310;21.876;2023-04-30T07:12:38;34.0;;;32.0;;
22675;SDS011;12521;43.310;21.876;2023-04-30T07:17:15;34.0;;;32.0;;
22675;SDS011;12521;43.310;21.876;2023-04-30T07:21:51;37.0;;;36.0;;
22675;SDS011;12521;43.310;21.876;2023-04-30T07:26:27;37.0;;;36.0;;
22675;SDS011;12521;43.310;21.876;2023-04-30T07:31:04;34.0;;;33.0;;
22675;SDS011;12521;43.310;21.876;2023-04-30T07:35:40;34.0;;;33.0;;
22675;SDS011;12521;43.310;21.876;2023-04-30T07:40:17;34.0;;;33.0;;
22675;SDS011;12521;43.310;21.876;2023-04-30T07:44:54;32.0;;;30.0;;
22675;SDS011;12521;43.310;21.876;2023-04-30T07:49:30;32.0;;;30.0;;
22675;SDS011;12521;43.310;21.876;2023-04-30T07:54:07;29.0;;;26.0;;
22675;SDS011;12521;43.310;21.876;2023-04-30T07:58:44;29.0;;;26.0;;
22675;SDS011;12521;43.310;21.876;2023-04-30T08:03:20;26.0;;;21.0;;
22675;SDS011;12521;43.310;21.876;2023-04-30T08:07:57;26.0;;;21.0;;
22675;SDS011;12521;43.310;21.876;2023-04-30T08:12:35;25.0;;;20.0;;
22675;SDS011;12521;43.310;21.876;2023-04-30T08:17:12;25.0;;;20.0;;
22675;SDS011;12521;43.310;21.876;2023-04-30T08:21:49;24.0;;;20.0;;
22675;SDS011;12521;43.310;21.876;2023-04-30T08:26:25;24.0;;;20.0;;
22675;SDS011;12521;43.310;21.876;2023-04-30T08:31:02;30.0;;;24.0;;
22675;SDS011;12521;43.310;21.876;2023-04-30T08:35:40;30.0;;;24.0;;
22675;SDS011;12521;43.310;21.876;2023-04-30T08:40:16;30.0;;;24.0;;
22675;SDS011;12521;43.310;21.876;2023-04-30T08:44:54;37.0;;;28.0;;
22675;SDS011;12521;43.310;21.876;2023-04-30T08:49:31;37.0;;;28.0;;
22675;SDS011;12521;43.310;21.876;2023-04-30T08:54:12;47.0;;;34.0;;
22675;SDS011;12521;43.310;21.876;2023-04-30T08:58:52;47.0;;;34.0;;
22675;SDS011;12521;43.310;21.876;2023-04-30T09:03:30;57.0;;;41.0;;
22675;SDS011;12521;43.310;21.876;2023-04-30T09:08:07;57.0;;;41.0;;
22675;SDS011;12521;43.310;21.876;2023-04-30T09:13:14;38.0;;;28.0;;
22675;SDS011;12521;43.310;21.876;2023-04-30T09:18:06;38.0;;;28.0;;
22675;SDS011;12521;43.310;21.876;2023-04-30T09:23:05;19.0;;;16.0;;
22675;SDS011;12521;43.310;21.876;2023-04-30T09:27:46;19.0;;;16.0;;
22675;SDS011;12521;43.310;21.876;2023-04-30T09:32:23;16.0;;;14.0;;
22675;SDS011;12521;43.310;21.876;2023-04-30T09:37:00;16.0;;;14.0;;
22675;SDS011;12521;43.310;21.876;2023-04-30T09:41:38;13.0;;;11.0;;
22675;SDS011;12521;43.310;21.876;2023-04-30T09:46:18;13.0;;;11.0;;
22675;SDS011;12521;43.310;21.876;2023-04-30T09:51:07;12.0;;;10.0;;
22675;SDS011;12521;43.310;21.876;2023-04-30T09:55:46;12.0;;;10.0;;
22675;SDS011;12521;43.310;21.876;2023-04-30T10:00:27;12.0;;;10.0;;
22675;SDS011;12521;43.310;21.876;2023-04-30T10:05:05;12.0;;;10.0;;
22675;SDS011;12521;43.310;21.876;2023-04-30T10:09:49;12.0;;;10.0;;
22675;SDS011;12521;43.310;21.876;2023-04-30T10:14:50;12.0;;;10.0;;
22675;SDS011;12521;43.310;21.876;2023-04-30T10:19:54;12.0;;;10.0;;
22675;SDS011;12521;43.310;21.876;2023-04-30T10:24:47;12.0;;;10.0;;
22675;SDS011;12521;43.310;21.876;2023-04-30T10:29:27;12.0;;;10.0;;
22675;SDS011;12521;43.310;21.876;2023-04-30T10:34:16;11.0;;;10.0;;
22675;SDS011;12521;43.310;21.876;2023-04-30T10:39:32;11.0;;;10.0;;
22675;SDS011;12521;43.310;21.876;2023-04-30T10:44:14;10.0;;;9.0;;
22675;SDS011;12521;43.310;21.876;2023-04-30T10:48:57;10.0;;;9.0;;
22675;SDS011;12521;43.310;21.876;2023-04-30T10:53:35;8.0;;;8.0;;
22675;SDS011;12521;43.310;21.876;2023-04-30T10:58:24;8.0;;;8.0;;
22675;SDS011;12521;43.310;21.876;2023-04-30T11:03:06;6.0;;;6.0;;
22675;SDS011;12521;43.310;21.876;2023-04-30T11:07:47;6.0;;;6.0;;
22675;SDS011;12521;43.310;21.876;2023-04-30T11:12:27;8.0;;;7.0;;
22675;SDS011;12521;43.310;21.876;2023-04-30T11:17:04;8.0;;;7.0;;
22675;SDS011;12521;43.310;21.876;2023-04-30T11:22:18;10.0;;;8.0;;
22675;SDS011;12521;43.310;21.876;2023-04-30T11:27:02;10.0;;;8.0;;
22675;SDS011;12521;43.310;21.876;2023-04-30T11:31:40;10.0;;;8.0;;
22675;SDS011;12521;43.310;21.876;2023-04-30T11:36:21;10.0;;;8.0;;
22675;SDS011;12521;43.310;21.876;2023-04-30T11:41:06;9.0;;;7.0;;
22675;SDS011;12521;43.310;21.876;2023-04-30T11:46:00;9.0;;;7.0;;
22675;SDS011;12521;43.310;21.876;2023-04-30T11:50:51;9.0;;;7.0;;
22675;SDS011;12521;43.310;21.876;2023-04-30T11:55:28;10.0;;;8.0;;
22675;SDS011;12521;43.310;21.876;2023-04-30T12:00:10;10.0;;;8.0;;
22675;SDS011;12521;43.310;21.876;2023-04-30T12:05:00;10.0;;;8.0;;
22675;SDS011;12521;43.310;21.876;2023-04-30T12:09:51;10.0;;;8.0;;
22675;SDS011;12521;43.310;21.876;2023-04-30T12:14:29;8.0;;;6.0;;
22675;SDS011;12521;43.310;21.876;2023-04-30T12:19:06;8.0;;;6.0;;
22675;SDS011;12521;43.310;21.876;2023-04-30T12:23:43;6.0;;;5.0;;
22675;SDS011;12521;43.310;21.876;2023-04-30T12:28:22;6.0;;;5.0;;
22675;SDS011;12521;43.310;21.876;2023-04-30T12:32:59;6.0;;;4.0;;
22675;SDS011;12521;43.310;21.876;2023-04-30T12:37:41;6.0;;;4.0;;
22675;SDS011;12521;43.310;21.876;2023-04-30T12:42:20;6.0;;;4.0;;
22675;SDS011;12521;43.310;21.876;2023-04-30T12:46:57;6.0;;;4.0;;
22675;SDS011;12521;43.310;21.876;2023-04-30T12:51:34;5.0;;;4.0;;
22675;SDS011;12521;43.310;21.876;2023-04-30T12:56:13;5.0;;;4.0;;
22675;SDS011;12521;43.310;21.876;2023-04-30T13:00:57;5.0;;;4.0;;
22675;SDS011;12521;43.310;21.876;2023-04-30T13:05:33;4.0;;;4.0;;
22675;SDS011;12521;43.310;21.876;2023-04-30T13:10:10;4.0;;;4.0;;
22675;SDS011;12521;43.310;21.876;2023-04-30T13:14:49;5.0;;;5.0;;
22675;SDS011;12521;43.310;21.876;2023-04-30T13:19:25;5.0;;;5.0;;
22675;SDS011;12521;43.310;21.876;2023-04-30T13:24:02;6.0;;;6.0;;
22675;SDS011;12521;43.310;21.876;2023-04-30T13:28:40;6.0;;;6.0;;
22675;SDS011;12521;43.310;21.876;2023-04-30T13:33:17;6.0;;;6.0;;
22675;SDS011;12521;43.310;21.876;2023-04-30T13:37:54;6.0;;;6.0;;
22675;SDS011;12521;43.310;21.876;2023-04-30T13:42:36;7.0;;;5.0;;
22675;SDS011;12521;43.310;21.876;2023-04-30T13:47:17;7.0;;;5.0;;
22675;SDS011;12521;43.310;21.876;2023-04-30T13:51:54;8.0;;;6.0;;
22675;SDS011;12521;43.310;21.876;2023-04-30T13:56:31;8.0;;;6.0;;
22675;SDS011;12521;43.310;21.876;2023-04-30T14:01:08;8.0;;;7.0;;
22675;SDS011;12521;43.310;21.876;2023-04-30T14:05:44;8.0;;;7.0;;
22675;SDS011;12521;43.310;21.876;2023-04-30T14:10:21;8.0;;;7.0;;
22675;SDS011;12521;43.310;21.876;2023-04-30T14:14:58;8.0;;;6.0;;
22675;SDS011;12521;43.310;21.876;2023-04-30T14:19:34;8.0;;;6.0;;
22675;SDS011;12521;43.310;21.876;2023-04-30T14:24:11;7.0;;;6.0;;
22675;SDS011;12521;43.310;21.876;2023-04-30T14:28:48;7.0;;;6.0;;
22675;SDS011;12521;43.310;21.876;2023-04-30T14:33:26;10.0;;;8.0;;
22675;SDS011;12521;43.310;21.876;2023-04-30T14:38:02;10.0;;;8.0;;
22675;SDS011;12521;43.310;21.876;2023-04-30T14:42:39;13.0;;;9.0;;
22675;SDS011;12521;43.310;21.876;2023-04-30T14:47:16;13.0;;;9.0;;
22675;SDS011;12521;43.310;21.876;2023-04-30T14:51:53;10.0;;;8.0;;
22675;SDS011;12521;43.310;21.876;2023-04-30T14:56:30;10.0;;;8.0;;
22675;SDS011;12521;43.310;21.876;2023-04-30T15:01:07;6.0;;;6.0;;
22675;SDS011;12521;43.310;21.876;2023-04-30T15:05:44;6.0;;;6.0;;
22675;SDS011;12521;43.310;21.876;2023-04-30T15:10:21;6.0;;;6.0;;
22675;SDS011;12521;43.310;21.876;2023-04-30T15:14:57;6.0;;;6.0;;
22675;SDS011;12521;43.310;21.876;2023-04-30T15:19:34;6.0;;;6.0;;
22675;SDS011;12521;43.310;21.876;2023-04-30T15:24:10;7.0;;;6.0;;
22675;SDS011;12521;43.310;21.876;2023-04-30T15:28:46;7.0;;;6.0;;
22675;SDS011;12521;43.310;21.876;2023-04-30T15:33:23;11.0;;;8.0;;
22675;SDS011;12521;43.310;21.876;2023-04-30T15:37:59;11.0;;;8.0;;
22675;SDS011;12521;43.310;21.876;2023-04-30T15:42:36;15.0;;;9.0;;
22675;SDS011;12521;43.310;21.876;2023-04-30T15:47:12;15.0;;;9.0;;
22675;SDS011;12521;43.310;21.876;2023-04-30T15:51:50;12.0;;;8.0;;
22675;SDS011;12521;43.310;21.876;2023-04-30T15:56:27;12.0;;;8.0;;
22675;SDS011;12521;43.310;21.876;2023-04-30T16:01:04;12.0;;;8.0;;
22675;SDS011;12521;43.310;21.876;2023-04-30T16:05:41;9.0;;;8.0;;
22675;SDS011;12521;43.310;21.876;2023-04-30T16:10:18;9.0;;;8.0;;
22675;SDS011;12521;43.310;21.876;2023-04-30T16:14:55;10.0;;;8.0;;
22675;SDS011;12521;43.310;21.876;2023-04-30T16:19:32;10.0;;;8.0;;
22675;SDS011;12521;43.310;21.876;2023-04-30T16:24:09;10.0;;;9.0;;
22675;SDS011;12521;43.310;21.876;2023-04-30T16:28:46;10.0;;;9.0;;
22675;SDS011;12521;43.310;21.876;2023-04-30T16:33:22;10.0;;;9.0;;
22675;SDS011;12521;43.310;21.876;2023-04-30T16:37:59;10.0;;;9.0;;
22675;SDS011;12521;43.310;21.876;2023-04-30T16:42:35;11.0;;;9.0;;
22675;SDS011;12521;43.310;21.876;2023-04-30T16:47:12;11.0;;;9.0;;
22675;SDS011;12521;43.310;21.876;2023-04-30T16:51:48;12.0;;;10.0;;
22675;SDS011;12521;43.310;21.876;2023-04-30T16:56:26;12.0;;;10.0;;
22675;SDS011;12521;43.310;21.876;2023-04-30T17:01:03;12.0;;;10.0;;
22675;SDS011;12521;43.310;21.876;2023-04-30T17:05:40;12.0;;;12.0;;
22675;SDS011;12521;43.310;21.876;2023-04-30T17:10:17;12.0;;;12.0;;
22675;SDS011;12521;43.310;21.876;2023-04-30T17:14:55;10.0;;;10.0;;
22675;SDS011;12521;43.310;21.876;2023-04-30T17:19:32;10.0;;;10.0;;
22675;SDS011;12521;43.310;21.876;2023-04-30T17:24:09;9.0;;;8.0;;
22675;SDS011;12521;43.310;21.876;2023-04-30T17:28:46;9.0;;;8.0;;
22675;SDS011;12521;43.310;21.876;2023-04-30T17:33:22;10.0;;;9.0;;
22675;SDS011;12521;43.310;21.876;2023-04-30T17:37:59;10.0;;;9.0;;
22675;SDS011;12521;43.310;21.876;2023-04-30T17:42:36;10.0;;;10.0;;
22675;SDS011;12521;43.310;21.876;2023-04-30T17:47:12;10.0;;;10.0;;
22675;SDS011;12521;43.310;21.876;2023-04-30T17:51:49;11.0;;;10.0;;
22675;SDS011;12521;43.310;21.876;2023-04-30T17:56:26;11.0;;;10.0;;
22675;SDS011;12521;43.310;21.876;2023-04-30T18:01:04;11.0;;;10.0;;
22675;SDS011;12521;43.310;21.876;2023-04-30T18:05:40;12.0;;;11.0;;
22675;SDS011;12521;43.310;21.876;2023-04-30T18:10:16;12.0;;;11.0;;
22675;SDS011;12521;43.310;21.876;2023-04-30T18:14:53;32.0;;;24.0;;
22675;SDS011;12521;43.310;21.876;2023-04-30T18:19:29;32.0;;;24.0;;
22675;SDS011;12521;43.310;21.876;2023-04-30T18:24:06;51.0;;;36.0;;
22675;SDS011;12521;43.310;21.876;2023-04-30T18:28:42;51.0;;;36.0;;
22675;SDS011;12521;43.310;21.876;2023-04-30T18:33:19;34.0;;;26.0;;
22675;SDS011;12521;43.310;21.876;2023-04-30T18:37:56;34.0;;;26.0;;
22675;SDS011;12521;43.310;21.876;2023-04-30T18:42:33;18.0;;;17.0;;
22675;SDS011;12521;43.310;21.876;2023-04-30T18:47:10;18.0;;;17.0;;
22675;SDS011;12521;43.310;21.876;2023-04-30T18:51:47;17.0;;;16.0;;
22675;SDS011;12521;43.310;21.876;2023-04-30T18:56:24;17.0;;;16.0;;
22675;SDS011;12521;43.310;21.876;2023-04-30T19:01:01;17.0;;;16.0;;
22675;SDS011;12521;43.310;21.876;2023-04-30T19:05:37;16.0;;;14.0;;
22675;SDS011;12521;43.310;21.876;2023-04-30T19:10:15;16.0;;;14.0;;
22675;SDS011;12521;43.310;21.876;2023-04-30T19:14:52;14.0;;;13.0;;
22675;SDS011;12521;43.310;21.876;2023-04-30T19:19:28;14.0;;;13.0;;
22675;SDS011;12521;43.310;21.876;2023-04-30T19:24:05;13.0;;;12.0;;
22675;SDS011;12521;43.310;21.876;2023-04-30T19:28:41;13.0;;;12.0;;
22675;SDS011;12521;43.310;21.876;2023-04-30T19:33:18;16.0;;;15.0;;
22675;SDS011;12521;43.310;21.876;2023-04-30T19:37:56;16.0;;;15.0;;
22675;SDS011;12521;43.310;21.876;2023-04-30T19:42:33;20.0;;;18.0;;
22675;SDS011;12521;43.310;21.876;2023-04-30T19:47:10;20.0;;;18.0;;
22675;SDS011;12521;43.310;21.876;2023-04-30T19:51:47;16.0;;;14.0;;
22675;SDS011;12521;43.310;21.876;2023-04-30T19:56:25;16.0;;;14.0;;
22675;SDS011;12521;43.310;21.876;2023-04-30T20:01:02;16.0;;;14.0;;
22675;SDS011;12521;43.310;21.876;2023-04-30T20:05:39;12.0;;;11.0;;
22675;SDS011;12521;43.310;21.876;2023-04-30T20:10:16;12.0;;;11.0;;
22675;SDS011;12521;43.310;21.876;2023-04-30T20:14:54;12.0;;;10.0;;
22675;SDS011;12521;43.310;21.876;2023-04-30T20:19:31;12.0;;;10.0;;
22675;SDS011;12521;43.310;21.876;2023-04-30T20:24:07;12.0;;;10.0;;
22675;SDS011;12521;43.310;21.876;2023-04-30T20:28:44;12.0;;;10.0;;
22675;SDS011;12521;43.310;21.876;2023-04-30T20:33:20;14.0;;;12.0;;
22675;SDS011;12521;43.310;21.876;2023-04-30T20:37:57;14.0;;;12.0;;
22675;SDS011;12521;43.310;21.876;2023-04-30T20:42:33;15.0;;;14.0;;
22675;SDS011;12521;43.310;21.876;2023-04-30T20:47:09;15.0;;;14.0;;
22675;SDS011;12521;43.310;21.876;2023-04-30T20:51:46;14.0;;;12.0;;
22675;SDS011;12521;43.310;21.876;2023-04-30T20:56:22;14.0;;;12.0;;
22675;SDS011;12521;43.310;21.876;2023-04-30T21:00:58;14.0;;;12.0;;
22675;SDS011;12521;43.310;21.876;2023-04-30T21:05:35;12.0;;;11.0;;
22675;SDS011;12521;43.310;21.876;2023-04-30T21:10:12;12.0;;;11.0;;
22675;SDS011;12521;43.310;21.876;2023-04-30T21:14:48;15.0;;;14.0;;
22675;SDS011;12521;43.310;21.876;2023-04-30T21:19:25;15.0;;;14.0;;
22675;SDS011;12521;43.310;21.876;2023-04-30T21:24:02;18.0;;;17.0;;
22675;SDS011;12521;43.310;21.876;2023-04-30T21:28:38;18.0;;;17.0;;
22675;SDS011;12521;43.310;21.876;2023-04-30T21:33:15;22.0;;;21.0;;
22675;SDS011;12521;43.310;21.876;2023-04-30T21:37:52;22.0;;;21.0;;
22675;SDS011;12521;43.310;21.876;2023-04-30T21:42:29;27.0;;;25.0;;
22675;SDS011;12521;43.310;21.876;2023-04-30T21:47:05;27.0;;;25.0;;
22675;SDS011;12521;43.310;21.876;2023-04-30T21:51:42;25.0;;;24.0;;
22675;SDS011;12521;43.310;21.876;2023-04-30T21:56:18;25.0;;;24.0;;
22675;SDS011;12521;43.310;21.876;2023-04-30T22:00:55;25.0;;;24.0;;
22675;SDS011;12521;43.310;21.876;2023-04-30T22:05:32;23.0;;;22.0;;
22675;SDS011;12521;43.310;21.876;2023-04-30T22:10:09;23.0;;;22.0;;
22675;SDS011;12521;43.310;21.876;2023-04-30T22:14:51;24.0;;;22.0;;
22675;SDS011;12521;43.310;21.876;2023-04-30T22:19:30;24.0;;;22.0;;
22675;SDS011;12521;43.310;21.876;2023-04-30T22:24:06;24.0;;;21.0;;
22675;SDS011;12521;43.310;21.876;2023-04-30T22:28:43;24.0;;;21.0;;
22675;SDS011;12521;43.310;21.876;2023-04-30T22:33:20;24.0;;;22.0;;
22675;SDS011;12521;43.310;21.876;2023-04-30T22:37:57;24.0;;;22.0;;
22675;SDS011;12521;43.310;21.876;2023-04-30T22:42:34;25.0;;;23.0;;
22675;SDS011;12521;43.310;21.876;2023-04-30T22:47:11;25.0;;;23.0;;
22675;SDS011;12521;43.310;21.876;2023-04-30T22:51:49;22.0;;;20.0;;
22675;SDS011;12521;43.310;21.876;2023-04-30T22:56:27;22.0;;;20.0;;
22675;SDS011;12521;43.310;21.876;2023-04-30T23:01:05;22.0;;;20.0;;
22675;SDS011;12521;43.310;21.876;2023-04-30T23:05:41;18.0;;;16.0;;
22675;SDS011;12521;43.310;21.876;2023-04-30T23:10:18;18.0;;;16.0;;
22675;SDS011;12521;43.310;21.876;2023-04-30T23:14:55;18.0;;;16.0;;
22675;SDS011;12521;43.310;21.876;2023-04-30T23:19:31;18.0;;;16.0;;
22675;SDS011;12521;43.310;21.876;2023-04-30T23:24:07;18.0;;;17.0;;
22675;SDS011;12521;43.310;21.876;2023-04-30T23:28:44;18.0;;;17.0;;
22675;SDS011;12521;43.310;21.876;2023-04-30T23:33:20;20.0;;;18.0;;
22675;SDS011;12521;43.310;21.876;2023-04-30T23:37:56;20.0;;;18.0;;
22675;SDS011;12521;43.310;21.876;2023-04-30T23:42:33;22.0;;;20.0;;
22675;SDS011;12521;43.310;21.876;2023-04-30T23:47:10;22.0;;;20.0;;
22675;SDS011;12521;43.310;21.876;2023-04-30T23:51:46;20.0;;;18.0;;
22675;SDS011;12521;43.310;21.876;2023-04-30T23:56:23;20.0;;;18.0;;
